Terminal Aerodrome Forecast
Issued by NWS Cleveland, OH

Home | Current Version | Previous Version | Graphics & Text | Print | Product List | Glossary On
Versions: 1 2 3 4 5 6 7 8 9 10 11 12 13 14 15 16 17 18 19 20 21 22 23 24 25 26
142
FTUS41 KCLE 281138
TAFMFD
TAF
KMFD 281138Z 2812/2912 06008KT P6SM -SHRA OVC028
     FM281400 06008KT P6SM VCSH OVC018
     FM281600 03008KT P6SM OVC008
     FM290200 03006KT 5SM BR VCSH OVC008
     FM290600 02004KT 2SM BR OVC004=

USA.gov is the U.S. government's official web portal to all federal, state and local government web resources and services.